Oilton, Oklahoma
Current Conditions -  °F | °C
As of 3:15 PM on Monday 22 Dec 2014 (Local Time) from KCUH Reporting Station
Broken Clouds Broken Clouds  
Wind Chill: 55°   Ceiling: 3700
Heat Index: 55°   Visibility: 10mi
Dew Point: 45°   Wind: 15mph
Humidity: 67%   Direction: 330°NNW
Pressure: 29.57"   Gusts: 23mph
Location:  36.08°N, 96.58°W
Report Text: KCUH 222115Z AUTO 33013G20KT 10SM BKN037 13/07 A2957 RMK AO2
Loading
Personal Weather Stations






























Interactive Weather Map New forecast layout! Learn more

10-Day Weather Forecast

Advertisements
Track Severe Weather on mobile